Rosholt, WI (54473)

11:30 PM CDT on September 01, 2014 (GMT -0500)
Corks Repair | Change Station
CLOSE
Current Station
Personal Weather Station
Location: Iola, WI
Elevation: 1050 ft
Nearby Weather Stations

Elev 1050 ft 44.55 °N, 89.19 °W | Updated 1 second ago

Clear
Clear
61.9 °F
Feels Like 61.9 °F
N
0.0
Wind Variable Wind from WSW
Gusts 0.0 mph

Today
High -- | Low -- °F
--% Chance of Precip.
Yesterday
High -- | Low -- °F
Precip. -- in
6:19 AM 7:33 PM
Waxing Crescent, 47% visible
Pressure 29.81 in
Visibility 10.0 miles
Clouds Clear
Dew Point 62 °F
Humidity 100%
Rainfall 0.12 in
Snow Depth Not available.
UV 0 out of 12
Pollen 3.60 out of 12
Air Quality Not available.
Flu Activity Not available.
METAR KSTE 020415Z AUTO 28003KT 10SM CLR 16/14 A2981 RMK AO2 T01640137

More Conditions Fewer Conditions

Pressure 29.81 in
Visibility 10.0 miles
Clouds Clear
Dew Point 62 °F
Humidity 100%
Rainfall 0.12 in
Snow Depth Not available.
UV 0 out of 12
Pollen 3.60 out of 12
Air Quality Not available.
Flu Activity Not available.
METAR KSTE 020415Z AUTO 28003KT 10SM CLR 16/14 A2981 RMK AO2 T01640137

More Conditions Fewer Conditions

10-Day Weather Forecast

Almanac

Astronomy

Sep. 01, 2014 Rise Set
Actual Time 6:19 AM CDT 7:33 PM CDT
Civil Twilight 5:49 AM CDT 8:03 PM CDT
Nautical Twilight 5:13 AM CDT 8:39 PM CDT
Astronomical Twilight 4:35 AM CDT 9:18 PM CDT
Moon 1:21 PM CDT (9/1) 11:18 PM CDT (9/1)
Length of Visible Light 14h 14m
Length of Day
13h 14m
Tomorrow will be 2m 58s shorter.
Waxing Crescent, 47% of the Moon is Illuminated
Sep 2
Waxing Crescent
Sep 2
First Quarter
Sep 8
Full
Sep 15
Last Quarter
Sep 24
New

Today's Extremes

State Highs State Lows

Community

WunderPhotos

Upload Photos

1,749,566 photos uploaded!

WunderBlogs® & News

Nearby

Snow Depth

Station Depth Elevation
No new snow has been reported.

Earthquake Activity

City Distance Mag. Time & Date
No recent earthquake activity has been reported nearby.
Minimum magnitude displayed is 2.5.

Coastal Water Temperatures

Place Temperature
No Stations Reporting

Nearby Weather Stations